sensor_id;sensor_type;location;lat;lon;timestamp;pressure;altitude;pressure_sealevel;temperature;humidity
18533;BME280;9396;51.510;11.934;2023-04-25T00:00:48;99671.59;;;9.65;86.07
18533;BME280;9396;51.510;11.934;2023-04-25T00:03:15;99672.28;;;9.67;86.68
18533;BME280;9396;51.510;11.934;2023-04-25T00:05:43;99661.66;;;9.51;87.48
18533;BME280;9396;51.510;11.934;2023-04-25T00:08:10;99670.13;;;9.54;87.84
18533;BME280;9396;51.510;11.934;2023-04-25T00:10:38;99666.97;;;9.59;87.57
18533;BME280;9396;51.510;11.934;2023-04-25T00:13:05;99661.50;;;9.60;87.35
18533;BME280;9396;51.510;11.934;2023-04-25T00:15:33;99664.31;;;9.67;87.21
18533;BME280;9396;51.510;11.934;2023-04-25T00:18:01;99667.28;;;9.72;87.18
18533;BME280;9396;51.510;11.934;2023-04-25T00:20:28;99669.44;;;9.68;86.89
18533;BME280;9396;51.510;11.934;2023-04-25T00:22:55;99667.31;;;9.64;86.83
18533;BME280;9396;51.510;11.934;2023-04-25T00:25:21;99663.97;;;9.62;86.90
18533;BME280;9396;51.510;11.934;2023-04-25T00:27:50;99669.28;;;9.62;86.60
18533;BME280;9396;51.510;11.934;2023-04-25T00:30:16;99672.59;;;9.56;87.16
18533;BME280;9396;51.510;11.934;2023-04-25T00:32:43;99674.41;;;9.47;87.28
18533;BME280;9396;51.510;11.934;2023-04-25T00:35:09;99672.09;;;9.44;87.50
18533;BME280;9396;51.510;11.934;2023-04-25T00:37:36;99660.66;;;9.36;87.03
18533;BME280;9396;51.510;11.934;2023-04-25T00:40:06;99672.59;;;9.40;87.52
18533;BME280;9396;51.510;11.934;2023-04-25T00:42:33;99675.22;;;9.40;87.30
18533;BME280;9396;51.510;11.934;2023-04-25T00:45:05;99672.59;;;9.40;87.31
18533;BME280;9396;51.510;11.934;2023-04-25T00:47:32;99669.13;;;9.39;87.20
18533;BME280;9396;51.510;11.934;2023-04-25T00:49:59;99677.56;;;9.27;87.17
18533;BME280;9396;51.510;11.934;2023-04-25T00:52:26;99672.72;;;9.22;87.43
18533;BME280;9396;51.510;11.934;2023-04-25T00:54:53;99678.38;;;9.19;87.08
18533;BME280;9396;51.510;11.934;2023-04-25T00:57:19;99677.88;;;9.24;87.01
18533;BME280;9396;51.510;11.934;2023-04-25T00:59:46;99678.53;;;9.26;86.96
18533;BME280;9396;51.510;11.934;2023-04-25T01:02:14;99668.59;;;9.28;87.21
18533;BME280;9396;51.510;11.934;2023-04-25T01:04:41;99675.25;;;9.32;86.81
18533;BME280;9396;51.510;11.934;2023-04-25T01:07:07;99670.09;;;9.30;86.62
18533;BME280;9396;51.510;11.934;2023-04-25T01:09:35;99670.44;;;9.27;86.69
18533;BME280;9396;51.510;11.934;2023-04-25T01:12:02;99665.25;;;9.26;86.47
18533;BME280;9396;51.510;11.934;2023-04-25T01:14:29;99664.59;;;9.24;86.76
18533;BME280;9396;51.510;11.934;2023-04-25T01:16:55;99666.09;;;9.26;86.67
18533;BME280;9396;51.510;11.934;2023-04-25T01:19:24;99668.72;;;9.02;87.17
18533;BME280;9396;51.510;11.934;2023-04-25T01:21:52;99668.34;;;8.89;87.20
18533;BME280;9396;51.510;11.934;2023-04-25T01:24:19;99671.16;;;8.96;87.04
18533;BME280;9396;51.510;11.934;2023-04-25T01:26:45;99664.84;;;8.89;86.94
18533;BME280;9396;51.510;11.934;2023-04-25T01:29:15;99667.03;;;8.93;87.50
18533;BME280;9396;51.510;11.934;2023-04-25T01:31:43;99668.50;;;8.88;87.04
18533;BME280;9396;51.510;11.934;2023-04-25T01:34:10;99668.69;;;8.94;86.96
18533;BME280;9396;51.510;11.934;2023-04-25T01:36:37;99665.69;;;8.89;86.51
18533;BME280;9396;51.510;11.934;2023-04-25T01:39:06;99561.53;;;8.21;87.28
18533;BME280;9396;51.510;11.934;2023-04-25T01:41:33;99670.13;;;8.81;87.22
18533;BME280;9396;51.510;11.934;2023-04-25T01:44:01;99672.47;;;8.84;87.51
18533;BME280;9396;51.510;11.934;2023-04-25T01:46:28;99667.44;;;8.73;86.97
18533;BME280;9396;51.510;11.934;2023-04-25T01:48:55;99670.53;;;8.60;88.70
18533;BME280;9396;51.510;11.934;2023-04-25T01:51:21;99674.53;;;8.56;87.97
18533;BME280;9396;51.510;11.934;2023-04-25T01:53:48;99677.88;;;8.32;88.35
18533;BME280;9396;51.510;11.934;2023-04-25T01:56:17;99672.81;;;8.21;88.76
18533;BME280;9396;51.510;11.934;2023-04-25T01:58:45;99675.94;;;8.17;88.79
18533;BME280;9396;51.510;11.934;2023-04-25T02:01:12;99679.69;;;8.32;89.00
18533;BME280;9396;51.510;11.934;2023-04-25T02:03:39;99676.19;;;8.31;88.97
18533;BME280;9396;51.510;11.934;2023-04-25T02:06:06;99666.94;;;8.35;88.70
18533;BME280;9396;51.510;11.934;2023-04-25T02:08:32;99660.03;;;7.91;88.79
18533;BME280;9396;51.510;11.934;2023-04-25T02:10:59;99662.69;;;7.91;89.27
18533;BME280;9396;51.510;11.934;2023-04-25T02:13:27;99663.06;;;7.79;89.15
18533;BME280;9396;51.510;11.934;2023-04-25T02:15:54;99669.22;;;7.79;89.98
18533;BME280;9396;51.510;11.934;2023-04-25T02:18:20;99678.19;;;7.86;90.05
18533;BME280;9396;51.510;11.934;2023-04-25T02:20:47;99668.13;;;7.90;90.23
18533;BME280;9396;51.510;11.934;2023-04-25T02:23:14;99668.41;;;8.04;89.28
18533;BME280;9396;51.510;11.934;2023-04-25T02:25:41;99665.91;;;8.03;88.73
18533;BME280;9396;51.510;11.934;2023-04-25T02:28:07;99674.50;;;7.79;88.54
18533;BME280;9396;51.510;11.934;2023-04-25T02:30:35;99669.09;;;7.89;89.03
18533;BME280;9396;51.510;11.934;2023-04-25T02:33:02;99674.34;;;7.81;89.20
18533;BME280;9396;51.510;11.934;2023-04-25T02:35:29;99681.44;;;7.54;89.88
18533;BME280;9396;51.510;11.934;2023-04-25T02:37:56;99683.00;;;7.30;90.64
18533;BME280;9396;51.510;11.934;2023-04-25T02:40:22;99682.63;;;7.25;91.02
18533;BME280;9396;51.510;11.934;2023-04-25T02:42:49;99677.47;;;7.23;90.74
18533;BME280;9396;51.510;11.934;2023-04-25T02:45:16;99686.78;;;7.10;92.13
18533;BME280;9396;51.510;11.934;2023-04-25T02:47:44;99678.63;;;7.21;92.08
18533;BME280;9396;51.510;11.934;2023-04-25T02:50:11;99670.97;;;7.35;91.25
18533;BME280;9396;51.510;11.934;2023-04-25T02:52:38;99678.38;;;7.14;91.71
18533;BME280;9396;51.510;11.934;2023-04-25T02:55:05;99670.53;;;7.22;90.90
18533;BME280;9396;51.510;11.934;2023-04-25T02:57:32;99668.94;;;7.12;90.85
18533;BME280;9396;51.510;11.934;2023-04-25T02:59:58;99675.03;;;7.12;91.53
18533;BME280;9396;51.510;11.934;2023-04-25T03:02:25;99669.13;;;7.28;91.15
18533;BME280;9396;51.510;11.934;2023-04-25T03:04:53;99669.38;;;7.25;91.48
18533;BME280;9396;51.510;11.934;2023-04-25T03:07:19;99670.53;;;7.22;92.20
18533;BME280;9396;51.510;11.934;2023-04-25T03:09:46;99671.19;;;7.07;92.59
18533;BME280;9396;51.510;11.934;2023-04-25T03:12:13;99674.16;;;7.21;92.13
18533;BME280;9396;51.510;11.934;2023-04-25T03:14:39;99669.38;;;7.25;92.01
18533;BME280;9396;51.510;11.934;2023-04-25T03:17:06;99657.47;;;7.21;91.82
18533;BME280;9396;51.510;11.934;2023-04-25T03:19:33;99659.19;;;7.30;90.64
18533;BME280;9396;51.510;11.934;2023-04-25T03:22:01;99660.91;;;7.39;91.52
18533;BME280;9396;51.510;11.934;2023-04-25T03:24:29;99665.47;;;7.46;91.43
18533;BME280;9396;51.510;11.934;2023-04-25T03:26:55;99665.25;;;7.22;90.79
18533;BME280;9396;51.510;11.934;2023-04-25T03:29:22;99662.13;;;7.27;91.67
18533;BME280;9396;51.510;11.934;2023-04-25T03:31:51;99656.47;;;7.04;91.84
18533;BME280;9396;51.510;11.934;2023-04-25T03:34:18;99662.19;;;7.00;92.17
18533;BME280;9396;51.510;11.934;2023-04-25T03:36:46;99665.53;;;6.75;93.30
18533;BME280;9396;51.510;11.934;2023-04-25T03:39:14;99664.38;;;6.87;93.77
18533;BME280;9396;51.510;11.934;2023-04-25T03:41:41;99666.50;;;6.83;93.49
18533;BME280;9396;51.510;11.934;2023-04-25T03:44:08;99658.94;;;6.88;93.58
18533;BME280;9396;51.510;11.934;2023-04-25T03:46:34;99652.47;;;6.73;93.14
18533;BME280;9396;51.510;11.934;2023-04-25T03:49:01;99659.34;;;6.66;93.78
18533;BME280;9396;51.510;11.934;2023-04-25T03:51:27;99660.50;;;6.81;93.34
18533;BME280;9396;51.510;11.934;2023-04-25T03:53:54;99662.81;;;6.94;93.42
18533;BME280;9396;51.510;11.934;2023-04-25T03:56:22;99662.44;;;7.06;93.18
18533;BME280;9396;51.510;11.934;2023-04-25T03:58:49;99654.16;;;7.19;91.34
18533;BME280;9396;51.510;11.934;2023-04-25T04:01:15;99658.66;;;7.09;91.15
18533;BME280;9396;51.510;11.934;2023-04-25T04:03:42;99663.78;;;7.10;91.65
18533;BME280;9396;51.510;11.934;2023-04-25T04:06:10;99666.06;;;7.05;91.93
18533;BME280;9396;51.510;11.934;2023-04-25T04:08:38;99667.97;;;7.13;91.72
18533;BME280;9396;51.510;11.934;2023-04-25T04:11:05;99664.19;;;7.15;91.70
18533;BME280;9396;51.510;11.934;2023-04-25T04:13:33;99669.63;;;7.31;91.24
18533;BME280;9396;51.510;11.934;2023-04-25T04:15:59;99663.56;;;7.39;90.29
18533;BME280;9396;51.510;11.934;2023-04-25T04:18:26;99673.47;;;7.37;89.84
18533;BME280;9396;51.510;11.934;2023-04-25T04:20:52;99671.44;;;7.31;89.51
18533;BME280;9396;51.510;11.934;2023-04-25T04:23:19;99671.75;;;7.28;90.00
18533;BME280;9396;51.510;11.934;2023-04-25T04:25:48;99680.28;;;7.22;91.25
18533;BME280;9396;51.510;11.934;2023-04-25T04:28:14;99680.06;;;7.33;91.47
18533;BME280;9396;51.510;11.934;2023-04-25T04:30:42;99688.44;;;7.28;89.92
18533;BME280;9396;51.510;11.934;2023-04-25T04:33:12;99693.00;;;6.91;89.68
18533;BME280;9396;51.510;11.934;2023-04-25T04:35:40;99697.66;;;6.80;90.55
18533;BME280;9396;51.510;11.934;2023-04-25T04:38:08;99691.53;;;7.06;90.70
18533;BME280;9396;51.510;11.934;2023-04-25T04:40:36;99698.06;;;7.29;90.37
18533;BME280;9396;51.510;11.934;2023-04-25T04:43:03;99692.28;;;7.51;90.42
18533;BME280;9396;51.510;11.934;2023-04-25T04:45:29;99695.56;;;7.28;89.91
18533;BME280;9396;51.510;11.934;2023-04-25T04:47:57;99688.75;;;7.43;89.97
18533;BME280;9396;51.510;11.934;2023-04-25T04:50:24;99694.72;;;7.10;91.05
18533;BME280;9396;51.510;11.934;2023-04-25T04:52:51;99703.22;;;7.04;92.01
18533;BME280;9396;51.510;11.934;2023-04-25T04:55:19;99697.63;;;7.07;93.20
18533;BME280;9396;51.510;11.934;2023-04-25T04:57:46;99700.06;;;7.18;92.62
18533;BME280;9396;51.510;11.934;2023-04-25T05:00:13;99704.03;;;7.49;91.16
18533;BME280;9396;51.510;11.934;2023-04-25T05:02:40;99697.66;;;7.59;91.14
18533;BME280;9396;51.510;11.934;2023-04-25T05:05:09;99705.91;;;7.74;90.98
18533;BME280;9396;51.510;11.934;2023-04-25T05:07:35;99710.44;;;7.46;92.91
18533;BME280;9396;51.510;11.934;2023-04-25T05:10:02;99703.16;;;7.84;92.34
18533;BME280;9396;51.510;11.934;2023-04-25T05:12:29;99715.00;;;8.15;90.91
18533;BME280;9396;51.510;11.934;2023-04-25T05:14:56;99718.44;;;8.15;89.20
18533;BME280;9396;51.510;11.934;2023-04-25T05:17:23;99719.91;;;8.27;89.12
18533;BME280;9396;51.510;11.934;2023-04-25T05:19:50;99722.66;;;8.43;88.08
18533;BME280;9396;51.510;11.934;2023-04-25T05:22:18;99720.78;;;8.70;86.71
18533;BME280;9396;51.510;11.934;2023-04-25T05:24:44;99713.94;;;8.93;87.40
18533;BME280;9396;51.510;11.934;2023-04-25T05:27:11;99712.94;;;8.94;88.57
18533;BME280;9396;51.510;11.934;2023-04-25T05:29:38;99710.22;;;9.19;88.45
18533;BME280;9396;51.510;11.934;2023-04-25T05:32:05;99707.09;;;9.56;86.92
18533;BME280;9396;51.510;11.934;2023-04-25T05:34:32;99706.94;;;10.06;85.53
18533;BME280;9396;51.510;11.934;2023-04-25T05:36:59;99710.47;;;10.14;83.22
18533;BME280;9396;51.510;11.934;2023-04-25T05:39:27;99719.56;;;9.63;84.68
18533;BME280;9396;51.510;11.934;2023-04-25T05:41:54;99722.06;;;9.81;86.03
18533;BME280;9396;51.510;11.934;2023-04-25T05:44:21;99726.06;;;9.93;85.74
18533;BME280;9396;51.510;11.934;2023-04-25T05:46:47;99711.97;;;9.93;85.01
18533;BME280;9396;51.510;11.934;2023-04-25T05:49:14;99711.47;;;10.21;86.37
18533;BME280;9396;51.510;11.934;2023-04-25T05:51:40;99719.59;;;10.12;83.73
18533;BME280;9396;51.510;11.934;2023-04-25T05:54:07;99711.75;;;10.42;84.00
18533;BME280;9396;51.510;11.934;2023-04-25T05:56:36;99708.78;;;10.37;83.70
18533;BME280;9396;51.510;11.934;2023-04-25T05:59:02;99717.59;;;10.30;83.20
18533;BME280;9396;51.510;11.934;2023-04-25T06:01:29;99716.44;;;10.32;83.66
18533;BME280;9396;51.510;11.934;2023-04-25T06:03:56;99723.41;;;10.01;83.77
18533;BME280;9396;51.510;11.934;2023-04-25T06:06:23;99718.59;;;10.29;84.19
18533;BME280;9396;51.510;11.934;2023-04-25T06:08:49;99729.50;;;10.66;82.03
18533;BME280;9396;51.510;11.934;2023-04-25T06:11:16;99724.88;;;10.44;82.11
18533;BME280;9396;51.510;11.934;2023-04-25T06:13:44;99732.88;;;10.04;83.62
18533;BME280;9396;51.510;11.934;2023-04-25T06:16:10;99734.19;;;9.92;84.19
18533;BME280;9396;51.510;11.934;2023-04-25T06:18:37;99728.06;;;9.91;86.85
18533;BME280;9396;51.510;11.934;2023-04-25T06:21:04;99736.72;;;9.93;88.18
18533;BME280;9396;51.510;11.934;2023-04-25T06:23:31;99727.41;;;10.13;89.92
18533;BME280;9396;51.510;11.934;2023-04-25T06:25:57;99730.72;;;9.99;87.42
18533;BME280;9396;51.510;11.934;2023-04-25T06:28:24;99728.72;;;10.01;88.76
18533;BME280;9396;51.510;11.934;2023-04-25T06:30:52;99734.19;;;9.92;87.13
18533;BME280;9396;51.510;11.934;2023-04-25T06:33:18;99737.00;;;10.06;86.70
18533;BME280;9396;51.510;11.934;2023-04-25T06:35:45;99741.50;;;10.22;90.36
18533;BME280;9396;51.510;11.934;2023-04-25T06:38:12;99737.00;;;10.06;87.91
18533;BME280;9396;51.510;11.934;2023-04-25T06:40:38;99744.16;;;10.22;89.33
18533;BME280;9396;51.510;11.934;2023-04-25T06:43:05;99745.19;;;10.13;86.78
18533;BME280;9396;51.510;11.934;2023-04-25T06:45:32;99748.19;;;10.18;87.75
18533;BME280;9396;51.510;11.934;2023-04-25T06:48:00;99751.78;;;9.85;86.41
18533;BME280;9396;51.510;11.934;2023-04-25T06:50:26;99758.63;;;10.03;90.36
18533;BME280;9396;51.510;11.934;2023-04-25T06:52:53;99764.72;;;9.80;88.81
18533;BME280;9396;51.510;11.934;2023-04-25T06:55:19;99772.03;;;9.77;88.97
18533;BME280;9396;51.510;11.934;2023-04-25T06:57:46;99770.50;;;9.51;86.81
18533;BME280;9396;51.510;11.934;2023-04-25T07:00:14;99777.78;;;9.49;88.04
18533;BME280;9396;51.510;11.934;2023-04-25T07:02:40;99779.25;;;9.43;88.45
18533;BME280;9396;51.510;11.934;2023-04-25T07:05:10;99775.28;;;9.39;85.36
18533;BME280;9396;51.510;11.934;2023-04-25T07:07:36;99785.41;;;9.36;86.31
18533;BME280;9396;51.510;11.934;2023-04-25T07:10:04;99779.44;;;9.42;87.51
18533;BME280;9396;51.510;11.934;2023-04-25T07:12:30;99786.63;;;9.65;90.76
18533;BME280;9396;51.510;11.934;2023-04-25T07:14:57;99790.59;;;9.53;85.31
18533;BME280;9396;51.510;11.934;2023-04-25T07:17:24;99784.47;;;9.69;84.19
18533;BME280;9396;51.510;11.934;2023-04-25T07:19:50;99792.94;;;9.72;84.69
18533;BME280;9396;51.510;11.934;2023-04-25T07:22:18;99790.31;;;9.89;82.98
18533;BME280;9396;51.510;11.934;2023-04-25T07:24:45;99782.84;;;10.08;82.87
18533;BME280;9396;51.510;11.934;2023-04-25T07:27:13;99787.53;;;10.30;82.83
18533;BME280;9396;51.510;11.934;2023-04-25T07:29:40;99791.13;;;10.77;79.21
18533;BME280;9396;51.510;11.934;2023-04-25T07:32:07;99795.47;;;11.56;78.04
18533;BME280;9396;51.510;11.934;2023-04-25T07:34:35;99785.03;;;11.77;76.51
18533;BME280;9396;51.510;11.934;2023-04-25T07:37:02;99786.84;;;11.84;80.75
18533;BME280;9396;51.510;11.934;2023-04-25T07:39:30;99796.25;;;11.34;77.68
18533;BME280;9396;51.510;11.934;2023-04-25T07:41:57;99805.59;;;11.22;78.18
18533;BME280;9396;51.510;11.934;2023-04-25T07:44:25;99799.53;;;11.44;78.17
18533;BME280;9396;51.510;11.934;2023-04-25T07:46:52;99801.09;;;11.92;76.61
18533;BME280;9396;51.510;11.934;2023-04-25T07:49:18;99811.25;;;11.96;74.13
18533;BME280;9396;51.510;11.934;2023-04-25T07:51:45;99801.47;;;11.50;76.94
18533;BME280;9396;51.510;11.934;2023-04-25T07:54:14;99812.25;;;11.34;75.63
18533;BME280;9396;51.510;11.934;2023-04-25T07:56:42;99818.66;;;11.01;74.67
18533;BME280;9396;51.510;11.934;2023-04-25T07:59:08;99820.97;;;11.12;74.89
18533;BME280;9396;51.510;11.934;2023-04-25T08:01:36;99820.72;;;11.37;76.25
18533;BME280;9396;51.510;11.934;2023-04-25T08:04:02;99828.44;;;11.55;77.17
18533;BME280;9396;51.510;11.934;2023-04-25T08:06:29;99824.97;;;11.85;75.46
18533;BME280;9396;51.510;11.934;2023-04-25T08:08:56;99822.75;;;12.19;73.96
18533;BME280;9396;51.510;11.934;2023-04-25T08:11:23;99818.09;;;12.36;75.57
18533;BME280;9396;51.510;11.934;2023-04-25T08:13:51;99823.81;;;12.33;75.59
18533;BME280;9396;51.510;11.934;2023-04-25T08:16:18;99839.66;;;12.04;76.03
18533;BME280;9396;51.510;11.934;2023-04-25T08:18:44;99838.22;;;12.01;76.93
18533;BME280;9396;51.510;11.934;2023-04-25T08:21:11;99835.66;;;11.77;74.75
18533;BME280;9396;51.510;11.934;2023-04-25T08:23:38;99785.00;;;11.54;73.10
18533;BME280;9396;51.510;11.934;2023-04-25T08:26:05;99843.34;;;12.03;75.24
18533;BME280;9396;51.510;11.934;2023-04-25T08:28:32;99849.63;;;11.87;75.14
18533;BME280;9396;51.510;11.934;2023-04-25T08:31:00;99855.03;;;11.71;75.12
18533;BME280;9396;51.510;11.934;2023-04-25T08:33:27;99861.19;;;11.63;76.44
18533;BME280;9396;51.510;11.934;2023-04-25T08:35:53;99864.22;;;11.14;77.37
18533;BME280;9396;51.510;11.934;2023-04-25T08:38:20;99868.25;;;11.02;79.90
18533;BME280;9396;51.510;11.934;2023-04-25T08:40:49;99876.06;;;10.79;79.08
18533;BME280;9396;51.510;11.934;2023-04-25T08:43:19;99877.59;;;10.82;83.54
18533;BME280;9396;51.510;11.934;2023-04-25T08:45:46;99877.59;;;10.82;82.46
18533;BME280;9396;51.510;11.934;2023-04-25T08:48:16;99883.56;;;10.75;82.78
18533;BME280;9396;51.510;11.934;2023-04-25T08:50:46;99823.78;;;10.39;81.53
18533;BME280;9396;51.510;11.934;2023-04-25T08:53:16;99900.22;;;10.53;81.84
18533;BME280;9396;51.510;11.934;2023-04-25T08:55:45;99898.19;;;10.47;83.25
18533;BME280;9396;51.510;11.934;2023-04-25T08:58:13;99902.69;;;10.55;81.67
18533;BME280;9396;51.510;11.934;2023-04-25T09:00:40;99903.69;;;10.62;82.02
18533;BME280;9396;51.510;11.934;2023-04-25T09:03:06;99901.84;;;10.87;82.60
18533;BME280;9396;51.510;11.934;2023-04-25T09:05:36;99897.16;;;10.97;80.56
18533;BME280;9396;51.510;11.934;2023-04-25T09:08:03;99896.50;;;11.03;81.22
18533;BME280;9396;51.510;11.934;2023-04-25T09:10:30;99905.66;;;11.08;79.62
18533;BME280;9396;51.510;11.934;2023-04-25T09:13:02;99900.50;;;11.07;80.24
18533;BME280;9396;51.510;11.934;2023-04-25T09:15:29;99906.34;;;10.94;79.92
18533;BME280;9396;51.510;11.934;2023-04-25T09:17:57;99909.66;;;10.96;79.70
18533;BME280;9396;51.510;11.934;2023-04-25T09:20:24;99910.16;;;11.00;80.81
18533;BME280;9396;51.510;11.934;2023-04-25T09:23:03;99919.81;;;10.85;79.21
18533;BME280;9396;51.510;11.934;2023-04-25T09:25:34;99917.66;;;10.96;80.47
18533;BME280;9396;51.510;11.934;2023-04-25T09:28:04;99919.63;;;11.10;79.58
18533;BME280;9396;51.510;11.934;2023-04-25T09:30:32;99856.97;;;10.59;78.50
18533;BME280;9396;51.510;11.934;2023-04-25T09:33:04;99920.25;;;11.20;79.97
18533;BME280;9396;51.510;11.934;2023-04-25T09:35:35;99911.34;;;11.60;87.27
18533;BME280;9396;51.510;11.934;2023-04-25T09:38:08;99915.81;;;11.59;76.43
18533;BME280;9396;51.510;11.934;2023-04-25T09:40:39;99919.25;;;11.29;77.70
18533;BME280;9396;51.510;11.934;2023-04-25T09:43:09;99927.06;;;11.39;78.10
18533;BME280;9396;51.510;11.934;2023-04-25T09:45:41;99926.78;;;11.18;76.07
18533;BME280;9396;51.510;11.934;2023-04-25T09:48:11;99929.56;;;11.16;80.63
18533;BME280;9396;51.510;11.934;2023-04-25T09:50:38;99921.47;;;11.02;77.11
18533;BME280;9396;51.510;11.934;2023-04-25T09:53:05;99876.56;;;10.91;79.18
18533;BME280;9396;51.510;11.934;2023-04-25T09:55:34;99931.72;;;11.29;76.14
18533;BME280;9396;51.510;11.934;2023-04-25T09:58:04;99926.34;;;11.53;76.52
18533;BME280;9396;51.510;11.934;2023-04-25T10:00:32;99927.81;;;11.55;77.48
18533;BME280;9396;51.510;11.934;2023-04-25T10:03:00;99924.00;;;11.50;77.26
18533;BME280;9396;51.510;11.934;2023-04-25T10:05:30;99930.53;;;11.39;78.30
18533;BME280;9396;51.510;11.934;2023-04-25T10:07:59;99937.00;;;11.45;78.87
18533;BME280;9396;51.510;11.934;2023-04-25T10:10:28;99939.22;;;11.25;74.97
18533;BME280;9396;51.510;11.934;2023-04-25T10:13:00;99928.75;;;11.32;77.87
18533;BME280;9396;51.510;11.934;2023-04-25T10:15:27;99937.84;;;11.45;76.95
18533;BME280;9396;51.510;11.934;2023-04-25T10:17:54;99942.56;;;11.11;77.17
18533;BME280;9396;51.510;11.934;2023-04-25T10:20:23;99949.56;;;10.88;75.24
18533;BME280;9396;51.510;11.934;2023-04-25T10:22:53;99962.19;;;10.86;76.13
18533;BME280;9396;51.510;11.934;2023-04-25T10:25:22;99901.50;;;10.17;76.53
18533;BME280;9396;51.510;11.934;2023-04-25T10:27:50;99962.03;;;10.39;76.80
18533;BME280;9396;51.510;11.934;2023-04-25T10:30:18;99959.69;;;10.44;78.40
18533;BME280;9396;51.510;11.934;2023-04-25T10:32:45;99823.16;;;9.71;77.12
18533;BME280;9396;51.510;11.934;2023-04-25T10:35:16;99964.00;;;10.45;77.59
18533;BME280;9396;51.510;11.934;2023-04-25T10:37:56;99963.88;;;10.55;76.77
18533;BME280;9396;51.510;11.934;2023-04-25T10:40:24;99963.03;;;10.46;75.71
18533;BME280;9396;51.510;11.934;2023-04-25T10:42:51;99968.34;;;10.46;74.79
18533;BME280;9396;51.510;11.934;2023-04-25T10:45:19;99917.03;;;10.04;76.01
18533;BME280;9396;51.510;11.934;2023-04-25T10:47:46;99959.03;;;10.42;76.30
18533;BME280;9396;51.510;11.934;2023-04-25T10:50:14;99955.72;;;10.64;78.23
18533;BME280;9396;51.510;11.934;2023-04-25T10:52:41;99955.03;;;10.54;76.45
18533;BME280;9396;51.510;11.934;2023-04-25T10:55:08;99957.69;;;10.54;77.28
18533;BME280;9396;51.510;11.934;2023-04-25T10:57:39;99959.53;;;10.54;73.34
18533;BME280;9396;51.510;11.934;2023-04-25T11:00:12;99959.88;;;10.67;75.84
18533;BME280;9396;51.510;11.934;2023-04-25T11:02:46;99961.88;;;10.57;73.17
18533;BME280;9396;51.510;11.934;2023-04-25T11:05:20;99958.53;;;10.63;72.69
18533;BME280;9396;51.510;11.934;2023-04-25T11:07:50;99964.72;;;10.71;73.34
18533;BME280;9396;51.510;11.934;2023-04-25T11:10:18;99972.69;;;10.88;73.38
18533;BME280;9396;51.510;11.934;2023-04-25T11:12:45;99956.06;;;11.02;73.05
18533;BME280;9396;51.510;11.934;2023-04-25T11:15:13;99956.88;;;11.18;71.64
18533;BME280;9396;51.510;11.934;2023-04-25T11:17:40;99959.78;;;11.63;76.85
18533;BME280;9396;51.510;11.934;2023-04-25T11:20:08;99960.91;;;11.77;69.70
18533;BME280;9396;51.510;11.934;2023-04-25T11:22:37;99960.53;;;11.88;70.57
18533;BME280;9396;51.510;11.934;2023-04-25T11:25:06;99961.50;;;12.03;70.54
18533;BME280;9396;51.510;11.934;2023-04-25T11:27:33;99964.97;;;12.04;68.78
18533;BME280;9396;51.510;11.934;2023-04-25T11:30:10;99964.75;;;12.13;70.63
18533;BME280;9396;51.510;11.934;2023-04-25T11:32:39;99969.06;;;11.83;68.66
18533;BME280;9396;51.510;11.934;2023-04-25T11:35:08;99972.75;;;11.74;69.68
18533;BME280;9396;51.510;11.934;2023-04-25T11:37:35;99969.94;;;11.52;72.31
18533;BME280;9396;51.510;11.934;2023-04-25T11:40:02;99878.75;;;10.87;70.42
18533;BME280;9396;51.510;11.934;2023-04-25T11:42:31;99976.28;;;11.51;67.37
18533;BME280;9396;51.510;11.934;2023-04-25T11:44:58;99978.47;;;11.39;68.35
18533;BME280;9396;51.510;11.934;2023-04-25T11:47:28;99984.63;;;11.48;69.47
18533;BME280;9396;51.510;11.934;2023-04-25T11:49:55;99985.97;;;11.44;69.61
18533;BME280;9396;51.510;11.934;2023-04-25T11:52:23;99996.94;;;11.49;68.88
18533;BME280;9396;51.510;11.934;2023-04-25T11:54:50;99999.91;;;11.62;74.87
18533;BME280;9396;51.510;11.934;2023-04-25T11:57:19;100003.75;;;11.51;72.39
18533;BME280;9396;51.510;11.934;2023-04-25T11:59:45;100002.44;;;11.47;71.83
18533;BME280;9396;51.510;11.934;2023-04-25T12:02:24;100017.22;;;11.58;70.96
18533;BME280;9396;51.510;11.934;2023-04-25T12:04:51;100010.56;;;11.54;69.17
18533;BME280;9396;51.510;11.934;2023-04-25T12:07:18;100003.75;;;11.51;70.55
18533;BME280;9396;51.510;11.934;2023-04-25T12:09:51;100011.59;;;11.37;67.07
18533;BME280;9396;51.510;11.934;2023-04-25T12:12:18;100003.28;;;11.32;66.86
18533;BME280;9396;51.510;11.934;2023-04-25T12:14:46;100005.59;;;11.43;68.21
18533;BME280;9396;51.510;11.934;2023-04-25T12:17:14;100008.63;;;11.32;67.71
18533;BME280;9396;51.510;11.934;2023-04-25T12:19:40;100006.78;;;11.24;64.54
18533;BME280;9396;51.510;11.934;2023-04-25T12:22:20;100019.09;;;11.17;64.68
18533;BME280;9396;51.510;11.934;2023-04-25T12:24:48;100024.91;;;11.13;64.47
18533;BME280;9396;51.510;11.934;2023-04-25T12:27:16;100020.44;;;11.13;66.51
18533;BME280;9396;51.510;11.934;2023-04-25T12:29:50;100028.25;;;11.15;66.25
18533;BME280;9396;51.510;11.934;2023-04-25T12:32:17;100024.25;;;11.19;65.01
18533;BME280;9396;51.510;11.934;2023-04-25T12:34:44;100015.94;;;11.06;63.83
18533;BME280;9396;51.510;11.934;2023-04-25T12:37:11;100025.09;;;11.03;63.21
18533;BME280;9396;51.510;11.934;2023-04-25T12:39:38;100020.75;;;11.18;64.38
18533;BME280;9396;51.510;11.934;2023-04-25T12:42:06;100017.94;;;11.28;64.40
18533;BME280;9396;51.510;11.934;2023-04-25T12:44:36;100010.41;;;11.47;67.02
18533;BME280;9396;51.510;11.934;2023-04-25T12:47:03;100009.94;;;11.44;66.06
18533;BME280;9396;51.510;11.934;2023-04-25T12:49:30;100013.06;;;11.63;66.16
18533;BME280;9396;51.510;11.934;2023-04-25T12:51:57;100024.19;;;11.75;67.42
18533;BME280;9396;51.510;11.934;2023-04-25T12:54:24;100017.22;;;11.74;65.28
18533;BME280;9396;51.510;11.934;2023-04-25T12:56:51;100019.22;;;11.80;64.96
18533;BME280;9396;51.510;11.934;2023-04-25T12:59:19;100021.97;;;11.95;63.53
18533;BME280;9396;51.510;11.934;2023-04-25T13:01:46;100030.47;;;11.98;63.01
18533;BME280;9396;51.510;11.934;2023-04-25T13:04:13;100025.53;;;11.87;65.30
18533;BME280;9396;51.510;11.934;2023-04-25T13:06:40;100018.09;;;12.13;66.34